sensor_id;sensor_type;location;lat;lon;timestamp;temperature;humidity
78884;SHT31;68262;51.968;5.672;2023-03-14T00:00:22;15.2;67.1
78884;SHT31;68262;51.968;5.672;2023-03-14T00:02:53;15.1;67.8
78884;SHT31;68262;51.968;5.672;2023-03-14T00:05:24;14.9;69.6
78884;SHT31;68262;51.968;5.672;2023-03-14T00:07:54;14.6;71.7
78884;SHT31;68262;51.968;5.672;2023-03-14T00:10:23;14.4;72.3
78884;SHT31;68262;51.968;5.672;2023-03-14T00:12:53;14.2;72.6
78884;SHT31;68262;51.968;5.672;2023-03-14T00:15:22;14.1;73.4
78884;SHT31;68262;51.968;5.672;2023-03-14T00:17:52;14.0;73.1
78884;SHT31;68262;51.968;5.672;2023-03-14T00:20:21;13.9;72.9
78884;SHT31;68262;51.968;5.672;2023-03-14T00:22:51;13.8;72.6
78884;SHT31;68262;51.968;5.672;2023-03-14T00:25:21;13.7;72.7
78884;SHT31;68262;51.968;5.672;2023-03-14T00:27:52;13.6;72.9
78884;SHT31;68262;51.968;5.672;2023-03-14T00:30:21;13.5;73.4
78884;SHT31;68262;51.968;5.672;2023-03-14T00:32:50;13.4;73.3
78884;SHT31;68262;51.968;5.672;2023-03-14T00:35:20;13.4;73.5
78884;SHT31;68262;51.968;5.672;2023-03-14T00:37:49;13.3;73.3
78884;SHT31;68262;51.968;5.672;2023-03-14T00:40:18;13.2;73.6
78884;SHT31;68262;51.968;5.672;2023-03-14T00:42:48;13.2;72.6
78884;SHT31;68262;51.968;5.672;2023-03-14T00:45:17;13.1;73.1
78884;SHT31;68262;51.968;5.672;2023-03-14T00:47:47;13.1;72.2
78884;SHT31;68262;51.968;5.672;2023-03-14T00:50:16;13.0;72.1
78884;SHT31;68262;51.968;5.672;2023-03-14T00:52:45;13.0;71.1
78884;SHT31;68262;51.968;5.672;2023-03-14T00:55:16;12.9;71.0
78884;SHT31;68262;51.968;5.672;2023-03-14T00:57:45;12.8;70.3
78884;SHT31;68262;51.968;5.672;2023-03-14T01:00:17;12.7;69.2
78884;SHT31;68262;51.968;5.672;2023-03-14T01:02:47;12.7;69.8
78884;SHT31;68262;51.968;5.672;2023-03-14T01:05:16;12.6;69.9
78884;SHT31;68262;51.968;5.672;2023-03-14T01:07:46;12.5;70.0
78884;SHT31;68262;51.968;5.672;2023-03-14T01:10:17;12.5;70.1
78884;SHT31;68262;51.968;5.672;2023-03-14T01:12:46;12.4;71.1
78884;SHT31;68262;51.968;5.672;2023-03-14T01:15:18;12.4;71.0
78884;SHT31;68262;51.968;5.672;2023-03-14T01:17:47;12.3;71.8
78884;SHT31;68262;51.968;5.672;2023-03-14T01:20:17;12.3;70.9
78884;SHT31;68262;51.968;5.672;2023-03-14T01:22:47;12.3;71.5
78884;SHT31;68262;51.968;5.672;2023-03-14T01:25:17;12.3;71.6
78884;SHT31;68262;51.968;5.672;2023-03-14T01:27:47;12.2;72.5
78884;SHT31;68262;51.968;5.672;2023-03-14T01:30:18;12.2;72.9
78884;SHT31;68262;51.968;5.672;2023-03-14T01:32:48;12.2;72.0
78884;SHT31;68262;51.968;5.672;2023-03-14T01:35:17;12.2;72.4
78884;SHT31;68262;51.968;5.672;2023-03-14T01:37:47;12.2;71.9
78884;SHT31;68262;51.968;5.672;2023-03-14T01:40:18;12.2;71.8
78884;SHT31;68262;51.968;5.672;2023-03-14T01:43:00;12.2;72.7
78884;SHT31;68262;51.968;5.672;2023-03-14T01:49:53;12.1;71.8
78884;SHT31;68262;51.968;5.672;2023-03-14T01:52:29;12.1;72.0
78884;SHT31;68262;51.968;5.672;2023-03-14T01:55:06;12.1;72.5
78884;SHT31;68262;51.968;5.672;2023-03-14T01:57:39;12.1;73.3
78884;SHT31;68262;51.968;5.672;2023-03-14T02:00:13;12.1;73.6
78884;SHT31;68262;51.968;5.672;2023-03-14T02:02:46;12.1;74.5
78884;SHT31;68262;51.968;5.672;2023-03-14T02:05:21;12.1;75.1
78884;SHT31;68262;51.968;5.672;2023-03-14T02:07:53;12.1;75.4
78884;SHT31;68262;51.968;5.672;2023-03-14T02:10:25;12.1;75.8
78884;SHT31;68262;51.968;5.672;2023-03-14T02:13:00;12.0;75.7
78884;SHT31;68262;51.968;5.672;2023-03-14T02:15:32;12.0;75.8
78884;SHT31;68262;51.968;5.672;2023-03-14T02:18:03;12.0;76.0
78884;SHT31;68262;51.968;5.672;2023-03-14T02:20:41;11.9;76.3
78884;SHT31;68262;51.968;5.672;2023-03-14T02:23:16;11.9;76.8
78884;SHT31;68262;51.968;5.672;2023-03-14T02:25:55;11.9;77.0
78884;SHT31;68262;51.968;5.672;2023-03-14T02:28:28;11.9;77.5
78884;SHT31;68262;51.968;5.672;2023-03-14T02:31:00;11.8;76.7
78884;SHT31;68262;51.968;5.672;2023-03-14T02:33:29;11.8;77.0
78884;SHT31;68262;51.968;5.672;2023-03-14T02:36:00;11.8;77.2
78884;SHT31;68262;51.968;5.672;2023-03-14T02:38:34;11.8;77.3
78884;SHT31;68262;51.968;5.672;2023-03-14T02:41:05;11.8;77.2
78884;SHT31;68262;51.968;5.672;2023-03-14T02:43:35;11.8;77.0
78884;SHT31;68262;51.968;5.672;2023-03-14T02:46:07;11.8;77.4
78884;SHT31;68262;51.968;5.672;2023-03-14T02:48:41;11.7;77.5
78884;SHT31;68262;51.968;5.672;2023-03-14T02:51:13;11.7;76.9
78884;SHT31;68262;51.968;5.672;2023-03-14T02:53:44;11.7;76.4
78884;SHT31;68262;51.968;5.672;2023-03-14T02:56:15;11.7;77.1
78884;SHT31;68262;51.968;5.672;2023-03-14T02:58:46;11.7;76.3
78884;SHT31;68262;51.968;5.672;2023-03-14T03:01:16;11.7;76.3
78884;SHT31;68262;51.968;5.672;2023-03-14T03:03:46;11.7;75.6
78884;SHT31;68262;51.968;5.672;2023-03-14T03:06:15;11.6;75.7
78884;SHT31;68262;51.968;5.672;2023-03-14T03:08:45;11.6;75.8
78884;SHT31;68262;51.968;5.672;2023-03-14T03:11:14;11.6;76.1
78884;SHT31;68262;51.968;5.672;2023-03-14T03:13:44;11.6;76.3
78884;SHT31;68262;51.968;5.672;2023-03-14T03:16:13;11.6;76.2
78884;SHT31;68262;51.968;5.672;2023-03-14T03:18:43;11.6;75.8
78884;SHT31;68262;51.968;5.672;2023-03-14T03:21:12;11.6;76.1
78884;SHT31;68262;51.968;5.672;2023-03-14T03:23:43;11.6;76.3
78884;SHT31;68262;51.968;5.672;2023-03-14T03:26:14;11.6;75.8
78884;SHT31;68262;51.968;5.672;2023-03-14T03:28:44;11.6;76.3
78884;SHT31;68262;51.968;5.672;2023-03-14T03:31:13;11.6;75.5
78884;SHT31;68262;51.968;5.672;2023-03-14T03:33:42;11.5;75.5
78884;SHT31;68262;51.968;5.672;2023-03-14T03:36:12;11.5;75.7
78884;SHT31;68262;51.968;5.672;2023-03-14T03:38:41;11.5;75.1
78884;SHT31;68262;51.968;5.672;2023-03-14T03:41:11;11.5;75.5
78884;SHT31;68262;51.968;5.672;2023-03-14T03:43:40;11.5;75.0
78884;SHT31;68262;51.968;5.672;2023-03-14T03:46:10;11.5;75.1
78884;SHT31;68262;51.968;5.672;2023-03-14T03:48:39;11.5;74.3
78884;SHT31;68262;51.968;5.672;2023-03-14T03:51:12;11.5;74.8
78884;SHT31;68262;51.968;5.672;2023-03-14T03:53:43;11.5;74.6
78884;SHT31;68262;51.968;5.672;2023-03-14T03:56:12;11.5;74.7
78884;SHT31;68262;51.968;5.672;2023-03-14T03:58:42;11.5;74.9
78884;SHT31;68262;51.968;5.672;2023-03-14T04:01:11;11.5;73.7
78884;SHT31;68262;51.968;5.672;2023-03-14T04:03:42;11.5;73.7
78884;SHT31;68262;51.968;5.672;2023-03-14T04:06:13;11.5;73.8
78884;SHT31;68262;51.968;5.672;2023-03-14T04:08:42;11.5;73.6
78884;SHT31;68262;51.968;5.672;2023-03-14T04:11:12;11.5;74.2
78884;SHT31;68262;51.968;5.672;2023-03-14T04:13:41;11.5;73.7
78884;SHT31;68262;51.968;5.672;2023-03-14T04:16:15;11.5;73.4
78884;SHT31;68262;51.968;5.672;2023-03-14T04:18:45;11.5;73.7
78884;SHT31;68262;51.968;5.672;2023-03-14T04:21:15;11.5;73.8
78884;SHT31;68262;51.968;5.672;2023-03-14T04:23:44;11.5;73.6
78884;SHT31;68262;51.968;5.672;2023-03-14T04:26:14;11.5;72.9
78884;SHT31;68262;51.968;5.672;2023-03-14T04:28:43;11.5;72.9
78884;SHT31;68262;51.968;5.672;2023-03-14T04:31:16;11.6;72.9
78884;SHT31;68262;51.968;5.672;2023-03-14T04:33:46;11.6;73.3
78884;SHT31;68262;51.968;5.672;2023-03-14T04:36:18;11.6;72.8
78884;SHT31;68262;51.968;5.672;2023-03-14T04:38:47;11.6;72.8
78884;SHT31;68262;51.968;5.672;2023-03-14T04:41:17;11.6;73.2
78884;SHT31;68262;51.968;5.672;2023-03-14T04:43:46;11.6;72.7
78884;SHT31;68262;51.968;5.672;2023-03-14T04:46:15;11.6;72.1
78884;SHT31;68262;51.968;5.672;2023-03-14T04:48:45;11.7;71.8
78884;SHT31;68262;51.968;5.672;2023-03-14T04:51:14;11.7;71.7
78884;SHT31;68262;51.968;5.672;2023-03-14T04:53:44;11.7;72.8
78884;SHT31;68262;51.968;5.672;2023-03-14T04:56:13;11.7;71.9
78884;SHT31;68262;51.968;5.672;2023-03-14T04:58:42;11.7;71.9
78884;SHT31;68262;51.968;5.672;2023-03-14T05:01:14;11.7;71.7
78884;SHT31;68262;51.968;5.672;2023-03-14T05:03:45;11.7;71.3
78884;SHT31;68262;51.968;5.672;2023-03-14T05:06:14;11.8;71.6
78884;SHT31;68262;51.968;5.672;2023-03-14T05:08:43;11.8;72.0
78884;SHT31;68262;51.968;5.672;2023-03-14T05:11:13;11.8;71.2
78884;SHT31;68262;51.968;5.672;2023-03-14T05:13:42;11.8;71.4
78884;SHT31;68262;51.968;5.672;2023-03-14T05:16:12;11.8;71.7
78884;SHT31;68262;51.968;5.672;2023-03-14T05:18:41;11.8;72.6
78884;SHT31;68262;51.968;5.672;2023-03-14T05:21:11;11.8;71.9
78884;SHT31;68262;51.968;5.672;2023-03-14T05:23:40;11.8;72.1
78884;SHT31;68262;51.968;5.672;2023-03-14T05:26:09;11.8;72.2
78884;SHT31;68262;51.968;5.672;2023-03-14T05:28:39;11.8;71.9
78884;SHT31;68262;51.968;5.672;2023-03-14T05:31:09;11.8;72.2
78884;SHT31;68262;51.968;5.672;2023-03-14T05:33:39;11.8;72.2
78884;SHT31;68262;51.968;5.672;2023-03-14T05:36:09;11.8;72.4
78884;SHT31;68262;51.968;5.672;2023-03-14T05:38:40;11.8;72.3
78884;SHT31;68262;51.968;5.672;2023-03-14T05:41:10;11.8;72.2
78884;SHT31;68262;51.968;5.672;2023-03-14T05:43:39;11.8;72.8
78884;SHT31;68262;51.968;5.672;2023-03-14T05:46:09;11.8;73.1
78884;SHT31;68262;51.968;5.672;2023-03-14T05:48:39;11.8;73.5
78884;SHT31;68262;51.968;5.672;2023-03-14T05:51:10;11.8;73.8
78884;SHT31;68262;51.968;5.672;2023-03-14T05:53:40;11.7;73.9
78884;SHT31;68262;51.968;5.672;2023-03-14T05:56:10;11.7;74.3
78884;SHT31;68262;51.968;5.672;2023-03-14T05:58:39;11.7;74.5
78884;SHT31;68262;51.968;5.672;2023-03-14T06:01:08;11.6;75.1
78884;SHT31;68262;51.968;5.672;2023-03-14T06:03:38;11.6;74.9
78884;SHT31;68262;51.968;5.672;2023-03-14T06:06:08;11.6;75.5
78884;SHT31;68262;51.968;5.672;2023-03-14T06:08:37;11.5;75.8
78884;SHT31;68262;51.968;5.672;2023-03-14T06:11:07;11.5;76.3
78884;SHT31;68262;51.968;5.672;2023-03-14T06:13:37;11.5;76.7
78884;SHT31;68262;51.968;5.672;2023-03-14T06:16:07;11.4;77.0
78884;SHT31;68262;51.968;5.672;2023-03-14T06:18:36;11.4;76.8
78884;SHT31;68262;51.968;5.672;2023-03-14T06:21:07;11.4;77.1
78884;SHT31;68262;51.968;5.672;2023-03-14T06:23:38;11.4;77.5
78884;SHT31;68262;51.968;5.672;2023-03-14T06:26:08;11.4;78.0
78884;SHT31;68262;51.968;5.672;2023-03-14T06:28:39;11.3;77.9
78884;SHT31;68262;51.968;5.672;2023-03-14T06:31:11;11.3;78.3
78884;SHT31;68262;51.968;5.672;2023-03-14T06:33:40;11.3;78.3
78884;SHT31;68262;51.968;5.672;2023-03-14T06:36:10;11.3;78.5
78884;SHT31;68262;51.968;5.672;2023-03-14T06:38:39;11.3;79.0
78884;SHT31;68262;51.968;5.672;2023-03-14T06:41:11;11.3;78.9
78884;SHT31;68262;51.968;5.672;2023-03-14T06:43:40;11.3;78.9
78884;SHT31;68262;51.968;5.672;2023-03-14T06:46:10;11.3;79.1
78884;SHT31;68262;51.968;5.672;2023-03-14T06:48:39;11.3;78.7
78884;SHT31;68262;51.968;5.672;2023-03-14T06:51:09;11.3;79.1
78884;SHT31;68262;51.968;5.672;2023-03-14T06:53:38;11.3;79.1
78884;SHT31;68262;51.968;5.672;2023-03-14T06:56:09;11.3;79.2
78884;SHT31;68262;51.968;5.672;2023-03-14T06:58:38;11.3;79.4
78884;SHT31;68262;51.968;5.672;2023-03-14T07:01:20;11.3;79.8
78884;SHT31;68262;51.968;5.672;2023-03-14T07:03:50;11.3;80.0
78884;SHT31;68262;51.968;5.672;2023-03-14T07:06:19;11.3;79.6
78884;SHT31;68262;51.968;5.672;2023-03-14T07:08:49;11.3;80.2
78884;SHT31;68262;51.968;5.672;2023-03-14T07:11:18;11.3;77.1
78884;SHT31;68262;51.968;5.672;2023-03-14T07:13:47;11.3;76.2
78884;SHT31;68262;51.968;5.672;2023-03-14T07:16:17;11.3;75.8
78884;SHT31;68262;51.968;5.672;2023-03-14T07:18:47;11.2;74.7
78884;SHT31;68262;51.968;5.672;2023-03-14T07:21:18;11.2;74.9
78884;SHT31;68262;51.968;5.672;2023-03-14T07:23:48;11.2;75.2
78884;SHT31;68262;51.968;5.672;2023-03-14T07:26:18;11.1;73.8
78884;SHT31;68262;51.968;5.672;2023-03-14T07:28:48;11.1;73.7
78884;SHT31;68262;51.968;5.672;2023-03-14T07:31:17;11.0;72.4
78884;SHT31;68262;51.968;5.672;2023-03-14T07:33:47;11.0;72.7
78884;SHT31;68262;51.968;5.672;2023-03-14T07:36:16;10.9;73.2
78884;SHT31;68262;51.968;5.672;2023-03-14T07:38:46;10.9;73.6
78884;SHT31;68262;51.968;5.672;2023-03-14T07:41:15;10.9;73.6
78884;SHT31;68262;51.968;5.672;2023-03-14T07:43:45;10.8;73.2
78884;SHT31;68262;51.968;5.672;2023-03-14T07:46:14;10.8;73.4
78884;SHT31;68262;51.968;5.672;2023-03-14T07:48:44;10.7;73.8
78884;SHT31;68262;51.968;5.672;2023-03-14T07:51:14;10.7;74.3
78884;SHT31;68262;51.968;5.672;2023-03-14T07:53:43;10.6;74.9
78884;SHT31;68262;51.968;5.672;2023-03-14T07:56:13;10.6;75.0
78884;SHT31;68262;51.968;5.672;2023-03-14T07:58:42;10.6;75.2
78884;SHT31;68262;51.968;5.672;2023-03-14T08:01:14;10.6;75.3
78884;SHT31;68262;51.968;5.672;2023-03-14T08:03:45;10.5;74.9
78884;SHT31;68262;51.968;5.672;2023-03-14T08:06:15;10.5;76.1
78884;SHT31;68262;51.968;5.672;2023-03-14T08:08:44;10.5;76.0
78884;SHT31;68262;51.968;5.672;2023-03-14T08:11:13;10.5;75.6
78884;SHT31;68262;51.968;5.672;2023-03-14T08:13:43;10.5;75.2
78884;SHT31;68262;51.968;5.672;2023-03-14T08:16:17;10.5;75.2
78884;SHT31;68262;51.968;5.672;2023-03-14T08:18:47;10.5;75.7
78884;SHT31;68262;51.968;5.672;2023-03-14T08:21:16;10.5;74.9
78884;SHT31;68262;51.968;5.672;2023-03-14T08:23:45;10.5;74.8
78884;SHT31;68262;51.968;5.672;2023-03-14T08:26:15;10.4;72.8
78884;SHT31;68262;51.968;5.672;2023-03-14T08:28:44;10.4;72.2
78884;SHT31;68262;51.968;5.672;2023-03-14T08:31:13;10.4;72.8
78884;SHT31;68262;51.968;5.672;2023-03-14T08:33:43;10.3;72.1
78884;SHT31;68262;51.968;5.672;2023-03-14T08:36:13;10.3;72.4
78884;SHT31;68262;51.968;5.672;2023-03-14T08:38:42;10.2;70.8
78884;SHT31;68262;51.968;5.672;2023-03-14T08:41:11;10.2;69.6
78884;SHT31;68262;51.968;5.672;2023-03-14T08:43:43;10.1;68.9
78884;SHT31;68262;51.968;5.672;2023-03-14T08:46:12;10.0;68.3
78884;SHT31;68262;51.968;5.672;2023-03-14T08:48:42;9.9;68.8
78884;SHT31;68262;51.968;5.672;2023-03-14T08:51:13;9.8;69.3
78884;SHT31;68262;51.968;5.672;2023-03-14T08:53:43;9.7;69.3
78884;SHT31;68262;51.968;5.672;2023-03-14T08:56:14;9.7;69.4
78884;SHT31;68262;51.968;5.672;2023-03-14T08:58:45;9.6;70.2
78884;SHT31;68262;51.968;5.672;2023-03-14T09:01:16;9.6;70.8
78884;SHT31;68262;51.968;5.672;2023-03-14T09:03:46;9.6;70.3
78884;SHT31;68262;51.968;5.672;2023-03-14T09:06:16;9.6;70.4
78884;SHT31;68262;51.968;5.672;2023-03-14T09:08:46;9.5;71.9
78884;SHT31;68262;51.968;5.672;2023-03-14T09:11:16;9.5;70.8
78884;SHT31;68262;51.968;5.672;2023-03-14T09:13:46;9.5;70.8
78884;SHT31;68262;51.968;5.672;2023-03-14T09:16:16;9.5;70.8
78884;SHT31;68262;51.968;5.672;2023-03-14T09:18:45;9.5;69.1
78884;SHT31;68262;51.968;5.672;2023-03-14T09:21:15;9.5;69.1
78884;SHT31;68262;51.968;5.672;2023-03-14T09:23:47;9.5;69.8
78884;SHT31;68262;51.968;5.672;2023-03-14T09:26:17;9.5;68.0
78884;SHT31;68262;51.968;5.672;2023-03-14T09:28:46;9.5;68.4
78884;SHT31;68262;51.968;5.672;2023-03-14T09:31:16;9.5;68.4
78884;SHT31;68262;51.968;5.672;2023-03-14T09:33:45;9.5;67.6
78884;SHT31;68262;51.968;5.672;2023-03-14T09:36:16;9.5;68.5
78884;SHT31;68262;51.968;5.672;2023-03-14T09:38:45;9.6;66.3
78884;SHT31;68262;51.968;5.672;2023-03-14T09:41:20;9.6;66.6
78884;SHT31;68262;51.968;5.672;2023-03-14T09:44:00;9.6;66.4
78884;SHT31;68262;51.968;5.672;2023-03-14T09:46:34;9.6;65.2
78884;SHT31;68262;51.968;5.672;2023-03-14T09:49:10;9.6;64.1
78884;SHT31;68262;51.968;5.672;2023-03-14T09:51:41;9.7;63.8
78884;SHT31;68262;51.968;5.672;2023-03-14T09:54:24;9.7;65.2
78884;SHT31;68262;51.968;5.672;2023-03-14T09:56:56;9.7;62.7
78884;SHT31;68262;51.968;5.672;2023-03-14T09:59:26;9.7;61.1
78884;SHT31;68262;51.968;5.672;2023-03-14T10:01:58;9.7;61.2
78884;SHT31;68262;51.968;5.672;2023-03-14T10:04:30;9.7;62.2
78884;SHT31;68262;51.968;5.672;2023-03-14T10:07:00;9.8;62.3
78884;SHT31;68262;51.968;5.672;2023-03-14T10:09:29;9.8;63.5
78884;SHT31;68262;51.968;5.672;2023-03-14T10:12:00;9.8;61.9
78884;SHT31;68262;51.968;5.672;2023-03-14T10:14:33;9.9;61.8
78884;SHT31;68262;51.968;5.672;2023-03-14T10:17:12;9.9;61.3
78884;SHT31;68262;51.968;5.672;2023-03-14T10:19:53;10.0;60.4
78884;SHT31;68262;51.968;5.672;2023-03-14T10:22:26;10.0;61.3
78884;SHT31;68262;51.968;5.672;2023-03-14T10:24:58;10.1;60.7
78884;SHT31;68262;51.968;5.672;2023-03-14T10:27:31;10.1;61.2
78884;SHT31;68262;51.968;5.672;2023-03-14T10:30:04;10.1;61.2
78884;SHT31;68262;51.968;5.672;2023-03-14T10:32:36;10.2;59.9
78884;SHT31;68262;51.968;5.672;2023-03-14T10:35:21;10.2;60.1
78884;SHT31;68262;51.968;5.672;2023-03-14T10:37:54;10.3;59.8
78884;SHT31;68262;51.968;5.672;2023-03-14T10:40:29;10.3;59.6
78884;SHT31;68262;51.968;5.672;2023-03-14T10:43:01;10.4;58.2
78884;SHT31;68262;51.968;5.672;2023-03-14T10:45:36;10.4;57.6
78884;SHT31;68262;51.968;5.672;2023-03-14T10:48:21;10.4;59.0
78884;SHT31;68262;51.968;5.672;2023-03-14T10:50:55;10.4;60.8
78884;SHT31;68262;51.968;5.672;2023-03-14T10:53:26;10.4;59.7
78884;SHT31;68262;51.968;5.672;2023-03-14T10:55:55;10.3;60.3
78884;SHT31;68262;51.968;5.672;2023-03-14T10:58:28;10.2;60.5
78884;SHT31;68262;51.968;5.672;2023-03-14T11:01:13;10.2;59.1
78884;SHT31;68262;51.968;5.672;2023-03-14T11:03:51;10.1;59.5
78884;SHT31;68262;51.968;5.672;2023-03-14T11:06:31;10.1;59.7
78884;SHT31;68262;51.968;5.672;2023-03-14T11:09:10;10.1;60.9
78884;SHT31;68262;51.968;5.672;2023-03-14T11:11:45;10.2;61.2
78884;SHT31;68262;51.968;5.672;2023-03-14T11:14:23;10.2;61.1
78884;SHT31;68262;51.968;5.672;2023-03-14T11:17:01;10.3;59.2
78884;SHT31;68262;51.968;5.672;2023-03-14T11:19:48;10.3;60.6
78884;SHT31;68262;51.968;5.672;2023-03-14T11:22:31;10.4;57.8
78884;SHT31;68262;51.968;5.672;2023-03-14T11:25:27;10.4;56.2
78884;SHT31;68262;51.968;5.672;2023-03-14T11:28:14;10.4;55.0
78884;SHT31;68262;51.968;5.672;2023-03-14T11:30:52;10.4;54.5
78884;SHT31;68262;51.968;5.672;2023-03-14T11:33:28;10.4;54.9
78884;SHT31;68262;51.968;5.672;2023-03-14T11:36:06;10.4;55.2
78884;SHT31;68262;51.968;5.672;2023-03-14T11:38:40;10.5;55.0
78884;SHT31;68262;51.968;5.672;2023-03-14T11:41:16;10.5;53.8
78884;SHT31;68262;51.968;5.672;2023-03-14T11:43:51;10.6;54.8
78884;SHT31;68262;51.968;5.672;2023-03-14T11:46:26;10.7;53.6
78884;SHT31;68262;51.968;5.672;2023-03-14T11:49:03;10.8;55.0
78884;SHT31;68262;51.968;5.672;2023-03-14T11:51:36;11.0;52.8
78884;SHT31;68262;51.968;5.672;2023-03-14T11:54:18;11.3;51.5
78884;SHT31;68262;51.968;5.672;2023-03-14T11:56:54;11.5;49.4
78884;SHT31;68262;51.968;5.672;2023-03-14T11:59:33;11.7;49.6
78884;SHT31;68262;51.968;5.672;2023-03-14T12:02:14;11.9;49.5
78884;SHT31;68262;51.968;5.672;2023-03-14T12:05:14;12.1;45.9
78884;SHT31;68262;51.968;5.672;2023-03-14T12:07:53;12.2;46.4
78884;SHT31;68262;51.968;5.672;2023-03-14T12:10:26;12.3;46.9
78884;SHT31;68262;51.968;5.672;2023-03-14T12:12:57;12.5;46.0
78884;SHT31;68262;51.968;5.672;2023-03-14T12:15:27;12.9;45.2
78884;SHT31;68262;51.968;5.672;2023-03-14T12:17:57;13.5;44.5
78884;SHT31;68262;51.968;5.672;2023-03-14T12:20:26;14.2;40.8
78884;SHT31;68262;51.968;5.672;2023-03-14T12:23:03;14.8;40.5
78884;SHT31;68262;51.968;5.672;2023-03-14T12:25:36;15.2;39.0
78884;SHT31;68262;51.968;5.672;2023-03-14T12:28:18;15.5;36.8
78884;SHT31;68262;51.968;5.672;2023-03-14T12:30:48;15.6;36.1
78884;SHT31;68262;51.968;5.672;2023-03-14T12:33:38;15.6;34.5
78884;SHT31;68262;51.968;5.672;2023-03-14T12:36:48;15.5;34.1
78884;SHT31;68262;51.968;5.672;2023-03-14T12:39:37;15.5;33.9
78884;SHT31;68262;51.968;5.672;2023-03-14T12:42:12;15.6;33.7
78884;SHT31;68262;51.968;5.672;2023-03-14T12:44:46;15.7;33.1
78884;SHT31;68262;51.968;5.672;2023-03-14T12:49:08;15.9;33.6
78884;SHT31;68262;51.968;5.672;2023-03-14T12:51:39;16.4;34.3
78884;SHT31;68262;51.968;5.672;2023-03-14T12:54:21;16.6;32.7
78884;SHT31;68262;51.968;5.672;2023-03-14T12:57:03;17.0;30.1
78884;SHT31;68262;51.968;5.672;2023-03-14T12:59:35;17.2;29.8
78884;SHT31;68262;51.968;5.672;2023-03-14T13:04:02;17.4;29.6
78884;SHT31;68262;51.968;5.672;2023-03-14T13:06:50;17.5;29.3
78884;SHT31;68262;51.968;5.672;2023-03-14T13:11:36;17.6;30.8
78884;SHT31;68262;51.968;5.672;2023-03-14T13:14:10;17.9;29.0
78884;SHT31;68262;51.968;5.672;2023-03-14T13:16:40;18.1;28.9
78884;SHT31;68262;51.968;5.672;2023-03-14T13:19:19;18.3;28.6
78884;SHT31;68262;51.968;5.672;2023-03-14T13:21:50;18.5;28.8
78884;SHT31;68262;51.968;5.672;2023-03-14T13:24:22;18.8;29.3
78884;SHT31;68262;51.968;5.672;2023-03-14T13:26:54;19.3;27.3
78884;SHT31;68262;51.968;5.672;2023-03-14T13:29:27;19.6;26.4
78884;SHT31;68262;51.968;5.672;2023-03-14T13:32:02;19.8;25.5
78884;SHT31;68262;51.968;5.672;2023-03-14T13:34:35;20.0;25.2
78884;SHT31;68262;51.968;5.672;2023-03-14T13:37:05;20.1;25.0
78884;SHT31;68262;51.968;5.672;2023-03-14T13:39:34;20.2;24.0
78884;SHT31;68262;51.968;5.672;2023-03-14T13:42:15;20.2;23.5
78884;SHT31;68262;51.968;5.672;2023-03-14T13:44:46;20.3;23.8
78884;SHT31;68262;51.968;5.672;2023-03-14T13:47:18;20.3;24.7
78884;SHT31;68262;51.968;5.672;2023-03-14T13:49:50;20.3;24.0
78884;SHT31;68262;51.968;5.672;2023-03-14T13:52:31;20.1;24.1
78884;SHT31;68262;51.968;5.672;2023-03-14T13:55:04;19.6;25.3
78884;SHT31;68262;51.968;5.672;2023-03-14T13:57:46;19.4;24.4
78884;SHT31;68262;51.968;5.672;2023-03-14T14:00:21;19.4;23.0
78884;SHT31;68262;51.968;5.672;2023-03-14T14:02:55;19.3;24.3
78884;SHT31;68262;51.968;5.672;2023-03-14T14:05:27;19.2;24.2
78884;SHT31;68262;51.968;5.672;2023-03-14T14:07:58;19.0;24.8
78884;SHT31;68262;51.968;5.672;2023-03-14T14:10:29;18.7;24.4
78884;SHT31;68262;51.968;5.672;2023-03-14T14:13:01;18.5;26.1
78884;SHT31;68262;51.968;5.672;2023-03-14T14:15:39;18.5;26.0
78884;SHT31;68262;51.968;5.672;2023-03-14T14:18:13;18.5;26.1
78884;SHT31;68262;51.968;5.672;2023-03-14T14:20:45;18.6;25.0
78884;SHT31;68262;51.968;5.672;2023-03-14T14:23:18;18.7;25.0
78884;SHT31;68262;51.968;5.672;2023-03-14T14:25:53;18.8;26.1
78884;SHT31;68262;51.968;5.672;2023-03-14T14:28:25;18.8;24.9
78884;SHT31;68262;51.968;5.672;2023-03-14T14:31:20;18.9;26.0
78884;SHT31;68262;51.968;5.672;2023-03-14T14:33:57;18.9;25.0
78884;SHT31;68262;51.968;5.672;2023-03-14T14:36:31;18.9;25.9
78884;SHT31;68262;51.968;5.672;2023-03-14T14:39:05;18.7;24.9
78884;SHT31;68262;51.968;5.672;2023-03-14T14:41:40;18.2;25.6
78884;SHT31;68262;51.968;5.672;2023-03-14T14:44:16;17.6;27.4
78884;SHT31;68262;51.968;5.672;2023-03-14T14:46:47;17.0;27.8
78884;SHT31;68262;51.968;5.672;2023-03-14T14:49:19;16.6;29.1
78884;SHT31;68262;51.968;5.672;2023-03-14T14:51:50;16.2;29.5
78884;SHT31;68262;51.968;5.672;2023-03-14T14:54:33;16.0;29.4
78884;SHT31;68262;51.968;5.672;2023-03-14T14:57:12;15.8;30.5
78884;SHT31;68262;51.968;5.672;2023-03-14T14:59:43;15.7;29.6
78884;SHT31;68262;51.968;5.672;2023-03-14T15:02:32;15.6;29.1
78884;SHT31;68262;51.968;5.672;2023-03-14T15:05:11;15.4;28.5
78884;SHT31;68262;51.968;5.672;2023-03-14T15:07:41;15.1;29.0
78884;SHT31;68262;51.968;5.672;2023-03-14T15:10:14;14.9;28.3
78884;SHT31;68262;51.968;5.672;2023-03-14T15:12:44;14.7;29.3
78884;SHT31;68262;51.968;5.672;2023-03-14T15:15:16;14.5;29.0
78884;SHT31;68262;51.968;5.672;2023-03-14T15:17:47;14.3;29.6
78884;SHT31;68262;51.968;5.672;2023-03-14T15:20:17;14.2;30.6
78884;SHT31;68262;51.968;5.672;2023-03-14T15:22:51;14.1;31.0
78884;SHT31;68262;51.968;5.672;2023-03-14T15:25:22;14.0;30.6
78884;SHT31;68262;51.968;5.672;2023-03-14T15:27:52;13.9;30.7
78884;SHT31;68262;51.968;5.672;2023-03-14T15:30:21;13.8;30.8
78884;SHT31;68262;51.968;5.672;2023-03-14T15:32:52;13.7;30.2
78884;SHT31;68262;51.968;5.672;2023-03-14T15:35:21;13.6;30.2
78884;SHT31;68262;51.968;5.672;2023-03-14T15:37:51;13.5;31.2
78884;SHT31;68262;51.968;5.672;2023-03-14T15:40:24;13.4;30.4
78884;SHT31;68262;51.968;5.672;2023-03-14T15:42:53;13.3;30.8
78884;SHT31;68262;51.968;5.672;2023-03-14T15:45:23;13.2;29.9
78884;SHT31;68262;51.968;5.672;2023-03-14T15:47:52;13.2;30.8
78884;SHT31;68262;51.968;5.672;2023-03-14T15:50:22;13.1;31.4
78884;SHT31;68262;51.968;5.672;2023-03-14T15:52:52;13.0;32.0
78884;SHT31;68262;51.968;5.672;2023-03-14T15:55:23;12.9;32.3
78884;SHT31;68262;51.968;5.672;2023-03-14T15:57:52;12.9;32.2
78884;SHT31;68262;51.968;5.672;2023-03-14T16:00:22;12.8;32.2
78884;SHT31;68262;51.968;5.672;2023-03-14T16:02:55;12.8;32.4
78884;SHT31;68262;51.968;5.672;2023-03-14T16:05:25;12.7;31.7
78884;SHT31;68262;51.968;5.672;2023-03-14T16:07:54;12.7;32.2
78884;SHT31;68262;51.968;5.672;2023-03-14T16:10:24;12.6;33.5
78884;SHT31;68262;51.968;5.672;2023-03-14T16:12:53;12.6;32.4
78884;SHT31;68262;51.968;5.672;2023-03-14T16:15:23;12.5;32.5
78884;SHT31;68262;51.968;5.672;2023-03-14T16:17:54;12.4;32.1
78884;SHT31;68262;51.968;5.672;2023-03-14T16:20:24;12.4;33.2
78884;SHT31;68262;51.968;5.672;2023-03-14T16:22:56;12.3;33.0
78884;SHT31;68262;51.968;5.672;2023-03-14T16:25:25;12.2;33.2
78884;SHT31;68262;51.968;5.672;2023-03-14T16:27:55;12.2;32.9
78884;SHT31;68262;51.968;5.672;2023-03-14T16:30:24;12.1;32.6
78884;SHT31;68262;51.968;5.672;2023-03-14T16:32:53;12.1;31.7
78884;SHT31;68262;51.968;5.672;2023-03-14T16:35:24;12.1;32.8
78884;SHT31;68262;51.968;5.672;2023-03-14T16:37:54;12.0;32.8
78884;SHT31;68262;51.968;5.672;2023-03-14T16:40:23;12.0;33.4
78884;SHT31;68262;51.968;5.672;2023-03-14T16:42:53;12.0;33.6